CheckWX is a tool to help pilots better visualize weather data.  It is not intended as a substitute for an official pre-flight weather briefing.

18:59:01 UTC

CYHU METAR
Montréal / Saint-Hubert Airport
Montréal, Quebec, Canada
Current

59 mins ago

CYHU 191800Z AUTO 25011KT 9SM CLR M11/M18 A3055 RMK SLP351
Observed
Feb-19 @ 18:00 UTC
Wind
  • 250° at 11 KTS
Visibility
9 SM
Flight Rules
VFR
Cloud Levels
  • Clear skies
Temperature
-11°C / 12°F
Dewpoint
-18°C / -0°F
Humidity
57%
Altimeter
30.55" Hg
Pressure
1035.1 hPa
Previous

2 hours ago

CYHU 191700Z AUTO 23013KT 9SM CLR M13/M18 A3057 RMK SLP356
Observed
Feb-19 @ 17:00 UTC
Wind
  • 230° at 13 KTS
Visibility
9 SM
Flight Rules
VFR
Cloud Levels
  • Clear skies
Temperature
-13°C / 9°F
Dewpoint
-18°C / -0°F
Humidity
66%
Altimeter
30.57" Hg
Pressure
1035.6 hPa
Previous

3 hours ago

CYHU 191600Z AUTO 26010G17KT 9SM FEW026 M13/M19 A3057 RMK SLP357
Observed
Feb-19 @ 16:00 UTC
Wind
  • 260° at 10 KTS
  • Gusting to 17 KTS
Visibility
9 SM
Flight Rules
VFR
Cloud Levels
  • Few at 2,600' AGL
Temperature
-13°C / 9°F
Dewpoint
-19°C / -2°F
Humidity
61%
Altimeter
30.57" Hg
Pressure
1035.7 hPa